Terminal Aerodrome Forecast
Issued by NWS

Home | Current Version | Previous Version | Text Only | Print | Product List | Glossary On
Versions: 1 2 3 4 5 6 7 8 9 10 11 12 13 14 15 16 17 18 19 20 21 22 23 24 25 26 27 28
000
FTUS44 KOUN 131511 AAB
TAFGAG
TAF AMD
KGAG 131511Z 1315/1412 13005KT P6SM SCT250
     FM131700 16015G23KT P6SM FEW250
     FM140000 17013KT P6SM FEW250
     FM140900 22013KT P6SM OVC250=

USA.gov is the U.S. government's official web portal to all federal, state and local government web resources and services.